Terminal Aerodrome Forecast
Issued by NWS

Home | Current Version | Previous Version | Text Only | Print | Product List | Glossary On
Versions: 1 2 3 4 5 6 7 8 9 10 11 12 13 14 15 16 17 18 19 20 21 22 23 24 25 26 27 28 29
602
FTUS42 KCAE 230232 AAA
TAFOGB
TAF AMD
KOGB 230232Z 2303/2324 11009KT P6SM -SHRA OVC050
     FM230900 09011KT 5SM -RA OVC015 WS015/12040KT
     FM231400 12012G20KT 3SM -RA BR OVC007 WS020/11040KT=

USA.gov is the U.S. government's official web portal to all federal, state and local government web resources and services.